CheckWX is a tool to help pilots better visualize weather data.  It is not intended as a substitute for an official pre-flight weather briefing.

05:12:11 UTC

KHMZ METAR
Bedford County Airport
Bedford, Pennsylvania, USA
Current

17 mins ago

KHMZ 240455Z AUTO 15007KT 7SM OVC007 00/00 A3002 RMK AO2 T00031002 400171038
Observed
Feb-24 @ 04:55 UTC
Wind
  • 150° at 7 KTS
Visibility
7 SM
Flight Rules
IFR
Cloud Levels
  • Overcast at 700' AGL
Temperature
C / 32°F
Dewpoint
-0°C / 32°F
Humidity
100%
Altimeter
30.02" Hg
Pressure
1016.62 hPa
Previous

37 mins ago

KHMZ 240435Z AUTO 15008KT 7SM OVC007 00/00 A3003 RMK AO2 T00031003
Observed
Feb-24 @ 04:35 UTC
Wind
  • 150° at 8 KTS
Visibility
7 SM
Flight Rules
IFR
Cloud Levels
  • Overcast at 700' AGL
Temperature
C / 32°F
Dewpoint
-0°C / 32°F
Humidity
100%
Altimeter
30.03" Hg
Pressure
1016.92 hPa
Previous

57 mins ago

KHMZ 240415Z AUTO 17007KT 7SM OVC007 00/00 A3004 RMK AO2 T00031002
Observed
Feb-24 @ 04:15 UTC
Wind
  • 170° at 7 KTS
Visibility
7 SM
Flight Rules
IFR
Cloud Levels
  • Overcast at 700' AGL
Temperature
C / 32°F
Dewpoint
-0°C / 32°F
Humidity
100%
Altimeter
30.04" Hg
Pressure
1017.32 hPa